Time;durP1;ratioP1;P1;durP2;ratioP2;P2;SDS_P1;SDS_P2;PMS_P1;PMS_P2;Temp;Humidity;BMP_temperature;BMP_pressure;BME280_temperature;BME280_humidity;BME280_pressure;Samples;Min_cycle;Max_cycle;Signal;HPM_P1;HPM_P2
2021/12/18 00:01:31;;;;;;;31.23;17.48;;;4.10;73.80;;;;;;5063460;28;46387;-67
2021/12/18 00:03:57;;;;;;;26.30;15.90;;;4.10;73.80;;;;;;5063248;28;48624;-65
2021/12/18 00:06:31;;;;;;;25.25;14.45;;;4.20;73.70;;;;;;5065271;28;46572;-68
2021/12/18 00:08:58;;;;;;;25.42;15.38;;;4.20;73.50;;;;;;5064976;28;46397;-67
2021/12/18 00:11:24;;;;;;;27.90;15.70;;;4.20;72.90;;;;;;5064759;28;46432;-67
2021/12/18 00:13:50;;;;;;;24.80;15.30;;;4.20;72.90;;;;;;5065225;28;48127;-67
2021/12/18 00:16:16;;;;;;;26.83;16.27;;;4.20;73.00;;;;;;5065139;28;46362;-66
2021/12/18 00:18:44;;;;;;;31.83;16.13;;;4.20;74.10;;;;;;5064781;28;46456;-66
2021/12/18 00:21:14;;;;;;;31.53;15.80;;;4.20;73.90;;;;;;5064298;28;46754;-67
2021/12/18 00:23:40;;;;;;;34.03;17.83;;;4.10;74.10;;;;;;5064491;28;47945;-66
2021/12/18 00:26:06;;;;;;;31.92;17.65;;;3.80;75.30;;;;;;5065238;28;46481;-66
2021/12/18 00:28:31;;;;;;;30.20;16.73;;;3.90;74.40;;;;;;5064769;28;46386;-66
2021/12/18 00:30:57;;;;;;;31.50;17.77;;;3.90;74.50;;;;;;5081527;28;46059;-67
2021/12/18 00:33:22;;;;;;;33.40;19.00;;;3.90;74.40;;;;;;5064005;28;46359;-66
2021/12/18 00:35:48;;;;;;;32.67;18.70;;;3.90;74.40;;;;;;5064665;28;46361;-67
2021/12/18 00:38:14;;;;;;;32.93;18.53;;;3.80;74.30;;;;;;5065210;28;46384;-67
2021/12/18 00:41:10;;;;;;;36.60;19.40;;;3.70;74.70;;;;;;5064563;28;46404;-67
2021/12/18 00:43:40;;;;;;;33.77;19.23;;;3.80;74.70;;;;;;5081661;28;46331;-64
2021/12/18 00:46:11;;;;;;;32.42;18.40;;;3.80;74.10;;;;;;5064014;28;46436;-65
2021/12/18 00:48:37;;;;;;;31.42;17.70;;;3.80;74.00;;;;;;5063990;28;46396;-65
2021/12/18 00:51:03;;;;;;;40.17;21.17;;;3.60;74.30;;;;;;5082480;28;46275;-68
2021/12/18 00:53:31;;;;;;;34.53;18.70;;;3.50;74.90;;;;;;5064090;28;48773;-66
2021/12/18 00:55:58;;;;;;;36.53;19.65;;;3.40;75.30;;;;;;5064369;28;45866;-66
2021/12/18 00:58:28;;;;;;;35.58;19.13;;;3.40;75.20;;;;;;5065099;28;46307;-65
2021/12/18 01:00:54;;;;;;;36.10;19.23;;;3.40;75.20;;;;;;5064859;28;46484;-67
2021/12/18 01:03:23;;;;;;;33.85;17.95;;;3.40;75.30;;;;;;5064109;28;47971;-65
2021/12/18 01:05:51;;;;;;;34.30;18.77;;;3.40;75.00;;;;;;5064234;28;45894;-67
2021/12/18 01:08:18;;;;;;;33.33;17.45;;;3.30;75.00;;;;;;5064638;28;46456;-66
2021/12/18 01:13:26;;;;;;;34.35;17.85;;;3.30;75.00;;;;;;5079839;28;46435;-66
2021/12/18 01:15:55;;;;;;;37.45;20.23;;;3.30;74.90;;;;;;5063599;28;46415;-65
2021/12/18 01:23:51;;;;;;;38.05;17.60;;;3.30;75.90;;;;;;5082330;28;46657;-66
2021/12/18 01:26:17;;;;;;;35.35;17.25;;;3.20;75.00;;;;;;5064039;28;46476;-66
2021/12/18 01:28:43;;;;;;;37.00;19.30;;;3.30;74.90;;;;;;5064589;28;46362;-66
2021/12/18 01:31:09;;;;;;;43.38;19.17;;;3.30;74.70;;;;;;5063564;28;46459;-65
2021/12/18 01:33:36;;;;;;;36.27;16.83;;;3.40;74.70;;;;;;5063147;28;48224;-67
2021/12/18 01:36:01;;;;;;;34.53;17.08;;;3.30;74.70;;;;;;5063847;28;46458;-67
2021/12/18 01:38:31;;;;;;;39.40;17.87;;;3.30;74.90;;;;;;5063866;28;46583;-66
2021/12/18 01:40:58;;;;;;;34.35;16.42;;;3.20;75.00;;;;;;5063204;28;46477;-65
2021/12/18 01:54:34;;;;;;;38.03;17.20;;;3.10;75.70;;;;;;5035803;28;46368;-65
2021/12/18 01:57:00;;;;;;;36.47;17.93;;;3.10;75.60;;;;;;5063741;28;46315;-64
2021/12/18 01:59:52;;;;;;;34.73;14.20;;;3.00;75.70;;;;;;5063765;28;46315;-65
2021/12/18 02:02:20;;;;;;;37.17;14.90;;;3.00;76.00;;;;;;5060785;28;46360;-66
2021/12/18 02:04:46;;;;;;;26.42;13.95;;;2.90;76.00;;;;;;5062505;28;47962;-66
2021/12/18 02:07:16;;;;;;;35.35;14.75;;;2.90;76.20;;;;;;5063550;28;46393;-67
2021/12/18 02:12:16;;;;;;;42.15;14.38;;;2.80;76.50;;;;;;5078391;28;45800;-67
2021/12/18 02:22:55;;;;;;;36.42;14.90;;;2.90;75.80;;;;;;5080760;28;46445;-67
2021/12/18 02:25:24;;;;;;;39.63;15.45;;;2.90;75.70;;;;;;5063435;28;47792;-67
2021/12/18 02:27:51;;;;;;;41.75;13.50;;;3.00;75.60;;;;;;5061762;28;46413;-65
2021/12/18 02:30:20;;;;;;;81.72;14.25;;;2.90;75.80;;;;;;5063088;28;46445;-65
2021/12/18 02:32:46;;;;;;;50.65;15.60;;;2.90;76.00;;;;;;5062664;28;46393;-68
2021/12/18 02:35:47;;;;;;;49.13;15.97;;;2.80;76.30;;;;;;5062530;28;48042;-67
2021/12/18 02:38:20;;;;;;;47.55;14.52;;;2.80;76.50;;;;;;5061924;28;46191;-67
2021/12/18 02:43:35;;;;;;;42.10;13.30;;;2.90;75.90;;;;;;5078318;28;46394;-67
2021/12/18 02:46:06;;;;;;;61.30;15.10;;;2.90;75.90;;;;;;5062668;28;48310;-68
2021/12/18 02:48:38;;;;;;;103.38;20.17;;;2.90;76.00;;;;;;5080428;28;46381;-67
2021/12/18 02:51:09;;;;;;;48.58;15.43;;;2.90;76.00;;;;;;5062246;28;46496;-65
2021/12/18 02:53:37;;;;;;;65.68;15.48;;;2.90;76.10;;;;;;5061911;28;46399;-66
2021/12/18 02:56:09;;;;;;;49.72;14.82;;;3.00;76.00;;;;;;5062059;28;47231;-67
2021/12/18 02:58:37;;;;;;;56.63;14.93;;;3.00;76.00;;;;;;5062332;28;46457;-67
2021/12/18 03:01:04;;;;;;;54.13;14.38;;;2.90;76.20;;;;;;5061535;28;45829;-65
2021/12/18 03:03:33;;;;;;;32.65;13.30;;;2.80;76.50;;;;;;5062304;28;46377;-67
2021/12/18 03:06:30;;;;;;;35.50;14.10;;;2.80;76.50;;;;;;5062417;28;46423;-67
2021/12/18 03:25:16;;;;;;;31.63;13.57;;;2.80;76.40;;;;;;5080520;28;46368;-67
2021/12/18 03:27:42;;;;;;;60.65;14.25;;;2.80;76.50;;;;;;5058358;28;46430;-65
2021/12/18 03:30:08;;;;;;;44.93;13.47;;;2.80;76.40;;;;;;5060704;28;46959;-67
2021/12/18 03:32:34;;;;;;;49.50;14.00;;;2.80;76.30;;;;;;5061881;28;45834;-67
2021/12/18 03:35:00;;;;;;;49.70;12.43;;;2.80;76.30;;;;;;5062005;28;45909;-67
2021/12/18 03:37:29;;;;;;;36.83;12.80;;;2.80;76.30;;;;;;5062195;28;48276;-67
2021/12/18 03:39:55;;;;;;;31.15;12.50;;;2.80;76.20;;;;;;5062077;28;46546;-67
2021/12/18 03:42:20;;;;;;;53.27;13.83;;;2.90;75.90;;;;;;5061948;28;46417;-66
2021/12/18 03:44:47;;;;;;;50.90;13.07;;;3.00;75.80;;;;;;5061811;28;46376;-66
2021/12/18 03:47:13;;;;;;;37.90;11.35;;;3.00;75.70;;;;;;5060284;28;46389;-68
2021/12/18 03:49:39;;;;;;;48.73;13.17;;;3.00;75.70;;;;;;5062774;28;46274;-68
2021/12/18 03:52:05;;;;;;;46.23;14.53;;;3.00;75.60;;;;;;5060935;28;46369;-67
2021/12/18 03:54:31;;;;;;;52.25;12.40;;;3.00;75.80;;;;;;5064183;28;46402;-65
2021/12/18 03:56:57;;;;;;;42.23;13.80;;;2.90;76.10;;;;;;5064582;28;47880;-65
2021/12/18 03:59:22;;;;;;;43.88;12.60;;;2.80;76.40;;;;;;5064651;28;46394;-67
2021/12/18 04:01:49;;;;;;;61.73;12.73;;;2.80;76.50;;;;;;5065664;28;45941;-65
2021/12/18 04:04:15;;;;;;;61.53;12.80;;;2.90;76.30;;;;;;5064887;28;46483;-68
2021/12/18 04:06:42;;;;;;;44.83;11.88;;;2.70;76.90;;;;;;5064824;28;47964;-67
2021/12/18 04:09:11;;;;;;;35.17;11.57;;;2.60;77.10;;;;;;5064258;28;46493;-66
2021/12/18 04:11:37;;;;;;;63.58;13.40;;;2.50;77.50;;;;;;5065287;28;46448;-66
2021/12/18 04:14:03;;;;;;;53.83;12.40;;;2.40;79.00;;;;;;5064761;28;45984;-66
2021/12/18 04:16:32;;;;;;;65.93;11.70;;;2.40;78.20;;;;;;5064844;28;47865;-66
2021/12/18 04:18:59;;;;;;;52.53;12.82;;;2.40;78.10;;;;;;5083237;28;46319;-66
2021/12/18 04:21:25;;;;;;;55.33;12.65;;;2.40;78.10;;;;;;5064779;28;46377;-66
2021/12/18 04:23:53;;;;;;;39.43;14.10;;;2.30;78.40;;;;;;5064673;28;46128;-67
2021/12/18 04:26:24;;;;;;;39.35;14.32;;;2.40;78.30;;;;;;5064581;28;46469;-66
2021/12/18 04:28:50;;;;;;;47.78;13.35;;;2.50;77.80;;;;;;5064248;28;46478;-67
2021/12/18 04:31:16;;;;;;;42.30;13.00;;;2.70;77.40;;;;;;5064375;28;46421;-67
2021/12/18 04:33:42;;;;;;;32.97;12.30;;;2.60;77.20;;;;;;5081963;28;46632;-68
2021/12/18 04:36:08;;;;;;;39.28;12.60;;;2.50;77.60;;;;;;5064436;28;48749;-66
2021/12/18 04:38:34;;;;;;;27.87;11.70;;;2.50;77.50;;;;;;5064146;28;46405;-66
2021/12/18 04:41:00;;;;;;;40.33;12.50;;;2.50;77.40;;;;;;5081029;28;46511;-66
2021/12/18 04:43:26;;;;;;;70.18;13.48;;;2.60;77.40;;;;;;5063421;28;46498;-67
2021/12/18 04:45:52;;;;;;;43.87;12.63;;;2.50;77.40;;;;;;5082303;28;46436;-66
2021/12/18 04:48:18;;;;;;;36.13;12.23;;;2.60;77.60;;;;;;5064654;28;46398;-67
2021/12/18 04:50:46;;;;;;;42.97;12.60;;;2.60;77.30;;;;;;5063814;28;46299;-66
2021/12/18 04:53:12;;;;;;;33.20;12.57;;;2.60;77.20;;;;;;5064292;28;46314;-66
2021/12/18 04:55:37;;;;;;;36.97;13.33;;;2.70;77.20;;;;;;5081881;28;46331;-67
2021/12/18 04:58:04;;;;;;;38.00;14.27;;;2.70;77.00;;;;;;5063838;28;45922;-66
2021/12/18 05:00:37;;;;;;;39.78;12.50;;;2.70;76.80;;;;;;5064200;28;46428;-67
2021/12/18 05:03:10;;;;;;;33.58;11.82;;;2.70;76.70;;;;;;5062171;27;46436;-68
2021/12/18 05:05:36;;;;;;;35.72;13.60;;;2.60;76.90;;;;;;5061886;28;46452;-67
2021/12/18 05:08:03;;;;;;;21.87;9.83;;;2.60;77.10;;;;;;5062843;27;46145;-67
2021/12/18 05:10:29;;;;;;;27.92;10.32;;;2.70;77.00;;;;;;5062918;28;46509;-67
2021/12/18 05:12:55;;;;;;;39.67;11.70;;;2.80;76.90;;;;;;5062608;27;46599;-66
2021/12/18 05:15:21;;;;;;;29.10;12.37;;;2.80;76.60;;;;;;5063276;28;48222;-67
2021/12/18 05:17:46;;;;;;;33.03;10.83;;;2.70;76.80;;;;;;5081550;27;46457;-67
2021/12/18 05:20:12;;;;;;;33.67;11.20;;;2.70;76.90;;;;;;5062885;27;46504;-67
2021/12/18 05:22:38;;;;;;;27.80;11.50;;;2.80;76.90;;;;;;5062418;28;46452;-67
2021/12/18 05:25:05;;;;;;;28.83;11.60;;;2.80;76.70;;;;;;5062552;27;47845;-67
2021/12/18 05:27:31;;;;;;;27.40;12.15;;;2.80;76.50;;;;;;5062828;28;46392;-67
2021/12/18 05:30:02;;;;;;;31.80;11.50;;;2.90;76.60;;;;;;5062886;27;46481;-68
2021/12/18 05:32:28;;;;;;;32.97;11.68;;;2.90;76.40;;;;;;5062959;28;46448;-67
2021/12/18 05:34:54;;;;;;;30.33;10.80;;;2.90;76.50;;;;;;5079682;27;46482;-67
2021/12/18 05:39:47;;;;;;;29.53;10.50;;;2.80;77.00;;;;;;5080269;27;45925;-67
2021/12/18 05:42:14;;;;;;;28.50;10.45;;;2.70;77.20;;;;;;5080912;27;46405;-66
2021/12/18 05:44:40;;;;;;;27.38;10.50;;;2.70;77.50;;;;;;5061565;28;46433;-66
2021/12/18 05:47:06;;;;;;;28.25;10.27;;;2.60;77.60;;;;;;5062345;28;46491;-67
2021/12/18 05:49:34;;;;;;;26.52;9.73;;;2.60;77.60;;;;;;5080005;27;46244;-66
2021/12/18 05:52:00;;;;;;;27.75;10.20;;;2.70;77.50;;;;;;5061717;27;46552;-67
2021/12/18 05:54:26;;;;;;;21.20;9.57;;;2.70;77.20;;;;;;5062227;28;47991;-67
2021/12/18 05:56:51;;;;;;;24.97;9.97;;;2.70;77.00;;;;;;5061804;28;46595;-66
2021/12/18 05:59:17;;;;;;;23.77;8.63;;;2.70;76.90;;;;;;5062398;28;46389;-66
2021/12/18 06:01:43;;;;;;;19.80;9.50;;;2.70;78.20;;;;;;5062206;28;45908;-66
2021/12/18 06:04:09;;;;;;;31.50;11.70;;;2.70;76.90;;;;;;5062062;27;47573;-66
2021/12/18 06:06:37;;;;;;;29.17;12.03;;;2.70;76.80;;;;;;5061937;28;46439;-66
2021/12/18 06:09:03;;;;;;;23.63;10.25;;;2.70;76.80;;;;;;5079557;27;46493;-66
2021/12/18 06:11:31;;;;;;;25.30;9.80;;;2.60;77.00;;;;;;5057914;28;46470;-65
2021/12/18 06:13:57;;;;;;;25.17;10.88;;;2.60;77.20;;;;;;5060860;28;47915;-68
2021/12/18 06:16:22;;;;;;;31.03;10.70;;;2.70;77.00;;;;;;5060557;28;46572;-67
2021/12/18 06:18:50;;;;;;;22.57;9.00;;;2.80;76.80;;;;;;5061822;28;46445;-67
2021/12/18 06:21:17;;;;;;;33.65;10.98;;;2.80;76.50;;;;;;5062165;28;46418;-67
2021/12/18 06:23:52;;;;;;;27.17;10.65;;;2.90;76.40;;;;;;5061561;28;48834;-68
2021/12/18 06:26:20;;;;;;;34.50;11.00;;;2.80;76.50;;;;;;5061495;28;46543;-67
2021/12/18 06:28:46;;;;;;;23.35;10.07;;;2.70;76.70;;;;;;5061525;28;46545;-66
2021/12/18 06:31:12;;;;;;;22.63;8.97;;;2.70;77.10;;;;;;5060303;27;46714;-66
2021/12/18 06:33:38;;;;;;;26.17;9.53;;;2.60;77.20;;;;;;5060277;28;47983;-67
2021/12/18 06:36:04;;;;;;;22.90;8.90;;;2.50;77.70;;;;;;5060659;27;45815;-68
2021/12/18 06:38:30;;;;;;;17.20;7.57;;;2.30;78.00;;;;;;5061128;28;46457;-67
2021/12/18 06:40:56;;;;;;;19.02;8.82;;;2.30;78.50;;;;;;5060562;27;46448;-66
2021/12/18 06:43:21;;;;;;;23.80;9.57;;;2.20;78.40;;;;;;5060281;28;47811;-65
2021/12/18 06:45:47;;;;;;;22.50;10.30;;;2.30;78.50;;;;;;5060752;28;46491;-65
2021/12/18 06:48:18;;;;;;;20.20;9.20;;;2.40;78.20;;;;;;5061004;27;46421;-67
2021/12/18 06:50:43;;;;;;;25.08;10.88;;;2.50;77.80;;;;;;5060633;28;46444;-67
2021/12/18 06:53:09;;;;;;;25.30;10.53;;;2.60;77.20;;;;;;5059869;27;49125;-68
2021/12/18 06:55:37;;;;;;;20.30;9.80;;;2.60;77.10;;;;;;5077448;27;46382;-65
2021/12/18 06:58:04;;;;;;;26.80;10.38;;;2.60;77.00;;;;;;5060388;27;45851;-66
2021/12/18 07:00:30;;;;;;;23.90;9.23;;;2.60;76.90;;;;;;5060906;28;46343;-66
2021/12/18 07:02:56;;;;;;;19.00;9.10;;;2.50;77.20;;;;;;5059509;27;47862;-67
2021/12/18 07:05:22;;;;;;;23.45;9.77;;;2.40;77.50;;;;;;5060418;28;46445;-68
2021/12/18 07:07:50;;;;;;;24.83;9.60;;;2.50;77.60;;;;;;5061379;28;46406;-67
2021/12/18 07:10:16;;;;;;;21.55;9.30;;;2.50;77.40;;;;;;5060861;28;46598;-67
2021/12/18 07:12:42;;;;;;;25.42;10.55;;;2.40;77.60;;;;;;5078454;27;45981;-67
2021/12/18 07:15:10;;;;;;;36.50;12.73;;;2.40;77.40;;;;;;5059302;27;46592;-65
2021/12/18 07:17:36;;;;;;;24.63;11.05;;;2.50;77.50;;;;;;5060545;28;46363;-65
2021/12/18 07:20:06;;;;;;;24.08;10.25;;;2.60;77.70;;;;;;5077989;27;46358;-67
2021/12/18 07:22:31;;;;;;;28.95;11.20;;;2.60;77.60;;;;;;5061303;28;47179;-67
2021/12/18 07:24:57;;;;;;;31.90;13.37;;;2.60;77.50;;;;;;5061042;27;46478;-66
2021/12/18 07:27:23;;;;;;;24.03;9.80;;;2.60;77.60;;;;;;5061791;27;46401;-67
2021/12/18 07:29:49;;;;;;;27.02;9.95;;;2.50;77.60;;;;;;5063477;28;46608;-67
2021/12/18 07:32:14;;;;;;;26.80;10.00;;;2.50;77.80;;;;;;5064055;28;48164;-67
2021/12/18 07:34:40;;;;;;;26.30;10.40;;;2.40;78.00;;;;;;5065135;28;46323;-67
2021/12/18 07:37:06;;;;;;;27.60;9.50;;;2.50;77.90;;;;;;5064296;27;46469;-67
2021/12/18 07:39:32;;;;;;;17.93;8.73;;;2.60;77.60;;;;;;5065743;28;45869;-67
2021/12/18 07:41:57;;;;;;;18.77;8.60;;;2.60;77.30;;;;;;5067447;28;47796;-67
2021/12/18 07:44:23;;;;;;;19.30;8.10;;;2.60;77.20;;;;;;5066813;28;46470;-67
2021/12/18 07:46:49;;;;;;;26.53;9.70;;;2.60;77.10;;;;;;5066307;28;45993;-68
2021/12/18 07:49:15;;;;;;;17.23;7.60;;;2.70;77.00;;;;;;5064865;28;45996;-68
2021/12/18 07:51:40;;;;;;;15.07;8.20;;;2.80;76.70;;;;;;5063337;28;47949;-69
2021/12/18 07:54:06;;;;;;;19.17;8.17;;;2.90;76.50;;;;;;5063823;27;46475;-67
2021/12/18 07:56:33;;;;;;;18.75;8.85;;;2.90;76.10;;;;;;5081956;27;46378;-68
2021/12/18 07:58:59;;;;;;;20.40;8.10;;;3.00;76.00;;;;;;5063980;27;46369;-68
2021/12/18 08:01:25;;;;;;;26.83;10.80;;;2.90;76.20;;;;;;5063860;28;48728;-67
2021/12/18 08:03:50;;;;;;;21.50;8.80;;;2.90;76.30;;;;;;5064492;28;46488;-66
2021/12/18 08:06:18;;;;;;;27.00;10.27;;;3.00;76.30;;;;;;5060490;28;45809;-67
2021/12/18 08:08:44;;;;;;;23.30;10.05;;;3.00;76.10;;;;;;5063746;28;46518;-68
2021/12/18 08:11:10;;;;;;;26.60;10.80;;;3.00;75.90;;;;;;5063148;28;46488;-68
2021/12/18 08:13:36;;;;;;;22.53;8.70;;;3.10;75.70;;;;;;5064451;28;46411;-68
2021/12/18 08:16:02;;;;;;;26.17;11.30;;;3.00;76.00;;;;;;5065247;28;46425;-67
2021/12/18 08:18:27;;;;;;;32.33;12.13;;;3.10;75.90;;;;;;5081163;27;46501;-67
2021/12/18 08:20:53;;;;;;;28.40;10.30;;;3.10;75.70;;;;;;5063845;27;46456;-66
2021/12/18 08:23:19;;;;;;;24.23;10.10;;;3.20;75.70;;;;;;5063674;28;46628;-67
2021/12/18 08:25:48;;;;;;;22.53;9.10;;;3.10;75.60;;;;;;5081235;28;46908;-66
2021/12/18 08:28:13;;;;;;;23.05;9.75;;;3.10;75.60;;;;;;5064349;28;46499;-67
2021/12/18 08:30:40;;;;;;;20.27;8.83;;;3.10;76.10;;;;;;5082456;28;46625;-67
2021/12/18 08:33:06;;;;;;;29.08;9.02;;;3.00;76.20;;;;;;5063777;28;46525;-66
2021/12/18 08:35:36;;;;;;;23.92;10.20;;;3.00;76.40;;;;;;5064867;28;46534;-65
2021/12/18 08:38:06;;;;;;;26.60;9.95;;;3.00;76.30;;;;;;5064756;28;46485;-67
2021/12/18 08:40:34;;;;;;;19.17;9.07;;;3.00;76.40;;;;;;5064369;28;46481;-67
2021/12/18 08:43:00;;;;;;;27.55;11.75;;;3.10;76.20;;;;;;5064311;28;46654;-67
2021/12/18 08:45:26;;;;;;;35.70;14.00;;;2.90;76.60;;;;;;5064297;28;46794;-67
2021/12/18 08:47:52;;;;;;;22.85;10.60;;;2.90;76.80;;;;;;5065135;28;46587;-65
2021/12/18 08:50:19;;;;;;;25.70;10.90;;;2.90;77.00;;;;;;5064130;28;47992;-66
2021/12/18 08:52:47;;;;;;;43.60;16.48;;;2.80;77.10;;;;;;5064740;28;45886;-67
2021/12/18 08:55:13;;;;;;;59.33;23.75;;;2.90;77.30;;;;;;5063445;28;46419;-67
2021/12/18 08:57:41;;;;;;;32.80;12.80;;;3.00;77.00;;;;;;5063589;28;46485;-67
2021/12/18 09:00:10;;;;;;;74.70;26.33;;;3.10;76.30;;;;;;5062889;27;47930;-67
2021/12/18 09:02:40;;;;;;;82.45;29.33;;;3.10;75.90;;;;;;5081271;28;46598;-68
2021/12/18 09:05:09;;;;;;;66.05;26.35;;;3.00;76.10;;;;;;5062916;28;46385;-67
2021/12/18 09:07:35;;;;;;;81.82;35.03;;;3.10;76.40;;;;;;5080602;28;46566;-65
2021/12/18 09:10:01;;;;;;;56.33;18.93;;;3.10;76.00;;;;;;5063560;28;47956;-67
2021/12/18 09:12:27;;;;;;;25.57;10.70;;;3.10;75.90;;;;;;5063998;28;46496;-66
2021/12/18 09:14:55;;;;;;;25.40;10.25;;;3.10;76.20;;;;;;5062430;28;46475;-68
2021/12/18 09:17:21;;;;;;;23.83;8.90;;;3.00;76.30;;;;;;5061781;28;46659;-66
2021/12/18 09:19:47;;;;;;;22.67;10.17;;;3.00;76.50;;;;;;5063122;28;47590;-67
2021/12/18 09:22:13;;;;;;;23.00;10.07;;;2.80;76.90;;;;;;5062529;28;46368;-67
2021/12/18 09:24:39;;;;;;;26.87;11.00;;;2.80;77.00;;;;;;5063236;28;46487;-68
2021/12/18 09:27:06;;;;;;;27.83;11.07;;;2.70;77.40;;;;;;5064088;28;46044;-67
2021/12/18 09:29:32;;;;;;;27.30;10.60;;;2.70;77.40;;;;;;5063879;28;47782;-67
2021/12/18 09:31:58;;;;;;;21.48;10.43;;;2.80;77.00;;;;;;5062606;28;46477;-66
2021/12/18 09:34:26;;;;;;;28.63;10.95;;;2.80;77.00;;;;;;5063688;28;46110;-66
2021/12/18 09:36:52;;;;;;;24.98;12.02;;;2.80;76.90;;;;;;5063560;28;46389;-66
2021/12/18 09:39:18;;;;;;;27.10;8.80;;;2.90;76.70;;;;;;5063875;28;48948;-67
2021/12/18 09:41:48;;;;;;;29.43;10.20;;;2.90;76.70;;;;;;5064231;28;46401;-67
2021/12/18 09:44:14;;;;;;;22.92;9.85;;;2.80;77.10;;;;;;5063410;28;45842;-67
2021/12/18 09:46:41;;;;;;;23.75;10.48;;;2.60;77.50;;;;;;5063838;28;46594;-68
2021/12/18 09:49:07;;;;;;;22.20;9.15;;;2.80;77.50;;;;;;5063801;28;47950;-67
2021/12/18 09:51:35;;;;;;;22.77;9.75;;;2.70;77.30;;;;;;5061248;28;46590;-67
2021/12/18 09:54:01;;;;;;;21.17;8.30;;;2.80;77.20;;;;;;5063283;28;46402;-67
2021/12/18 09:56:27;;;;;;;27.93;9.60;;;2.90;77.00;;;;;;5064058;28;46668;-68
2021/12/18 09:58:53;;;;;;;22.50;9.57;;;2.90;77.00;;;;;;5063527;28;48639;-66
2021/12/18 10:01:19;;;;;;;24.43;9.63;;;3.00;76.70;;;;;;5062337;28;46557;-67
2021/12/18 10:03:45;;;;;;;28.33;9.85;;;3.10;76.50;;;;;;5062326;28;46540;-68
2021/12/18 10:06:40;;;;;;;28.13;10.47;;;3.10;76.40;;;;;;5062873;28;45950;-67
2021/12/18 10:09:18;;;;;;;34.70;10.20;;;3.20;76.30;;;;;;5059987;28;48086;-68
2021/12/18 10:11:52;;;;;;;21.40;8.77;;;3.30;75.70;;;;;;5062986;28;46963;-67
2021/12/18 10:14:20;;;;;;;26.52;10.30;;;3.50;75.40;;;;;;5062868;28;46384;-67
2021/12/18 10:16:51;;;;;;;26.55;9.68;;;3.50;75.30;;;;;;5063313;28;46349;-67
2021/12/18 10:19:31;;;;;;;26.20;9.70;;;3.60;75.10;;;;;;5062636;28;47956;-66
2021/12/18 10:22:08;;;;;;;27.20;10.00;;;3.50;75.40;;;;;;5062189;28;46395;-67
2021/12/18 10:24:37;;;;;;;19.02;8.40;;;3.40;75.50;;;;;;5061573;28;46430;-67
2021/12/18 10:27:18;;;;;;;23.55;9.93;;;3.40;76.00;;;;;;5061775;28;46323;-67
2021/12/18 10:29:44;;;;;;;22.15;9.00;;;3.60;75.70;;;;;;5062127;28;48944;-68
2021/12/18 10:32:25;;;;;;;20.60;8.70;;;3.70;75.40;;;;;;5062757;28;46303;-69
2021/12/18 10:34:56;;;;;;;23.25;9.02;;;3.80;74.80;;;;;;5062589;28;46467;-67
2021/12/18 10:37:31;;;;;;;19.02;8.05;;;3.90;74.40;;;;;;5061388;28;46326;-67
2021/12/18 10:40:09;;;;;;;23.42;9.95;;;3.90;74.20;;;;;;5062033;27;48867;-68
2021/12/18 10:42:46;;;;;;;23.95;10.38;;;3.90;74.40;;;;;;5062340;28;46433;-65
2021/12/18 10:45:19;;;;;;;23.98;10.73;;;3.90;74.60;;;;;;5061881;28;46475;-66
2021/12/18 10:48:06;;;;;;;26.53;11.30;;;3.80;74.70;;;;;;5062957;28;46477;-66
2021/12/18 10:50:39;;;;;;;28.23;10.63;;;3.50;75.60;;;;;;5062483;28;46456;-67
2021/12/18 10:53:14;;;;;;;44.13;18.58;;;3.40;75.90;;;;;;5062393;28;46393;-68
2021/12/18 10:55:43;;;;;;;21.17;9.48;;;3.20;76.60;;;;;;5062521;28;46406;-68
2021/12/18 10:58:12;;;;;;;28.95;11.60;;;2.90;77.50;;;;;;5061827;28;46402;-65
2021/12/18 11:00:47;;;;;;;31.15;11.05;;;2.80;78.00;;;;;;5066434;28;48765;-66
2021/12/18 11:03:22;;;;;;;32.60;9.25;;;2.70;78.10;;;;;;5067328;28;46311;-68
2021/12/18 11:06:27;;;;;;;24.13;9.73;;;2.80;77.70;;;;;;5069412;28;46447;-67
2021/12/18 11:09:07;;;;;;;26.75;11.15;;;3.10;77.10;;;;;;5066383;28;46469;-68
2021/12/18 11:14:22;;;;;;;27.63;10.43;;;3.40;76.30;;;;;;5083031;28;46483;-65
2021/12/18 11:16:59;;;;;;;31.15;10.82;;;3.40;75.70;;;;;;5065844;28;46371;-67
2021/12/18 11:19:29;;;;;;;37.45;11.75;;;3.40;75.80;;;;;;5066246;28;46505;-65
2021/12/18 11:22:02;;;;;;;23.00;10.63;;;3.30;76.10;;;;;;5065742;28;47171;-66
2021/12/18 11:24:44;;;;;;;30.70;13.02;;;3.20;76.50;;;;;;5065484;28;46422;-66
2021/12/18 11:27:19;;;;;;;30.42;10.15;;;3.20;76.50;;;;;;5065862;28;46445;-66
2021/12/18 11:29:56;;;;;;;26.33;10.48;;;3.20;76.40;;;;;;5065441;28;46435;-67
2021/12/18 11:32:27;;;;;;;25.67;11.25;;;3.40;77.30;;;;;;5065622;28;47911;-67
2021/12/18 11:34:55;;;;;;;36.03;12.23;;;3.60;75.40;;;;;;5065372;28;45974;-67
2021/12/18 11:37:23;;;;;;;30.83;12.98;;;3.70;74.90;;;;;;5065646;28;46480;-68
2021/12/18 11:39:50;;;;;;;32.80;10.32;;;3.60;75.50;;;;;;5083279;28;46350;-66
2021/12/18 11:42:26;;;;;;;30.38;10.23;;;3.70;75.30;;;;;;5065321;28;47825;-68
2021/12/18 11:44:57;;;;;;;29.88;9.88;;;3.70;75.10;;;;;;5065476;28;46344;-68
2021/12/18 11:47:35;;;;;;;37.33;11.80;;;3.80;75.10;;;;;;5066056;28;46432;-66
2021/12/18 11:50:27;;;;;;;50.00;11.70;;;3.80;74.60;;;;;;5065877;28;46656;-68
2021/12/18 11:53:18;;;;;;;38.78;13.32;;;3.60;75.50;;;;;;5061205;28;48076;-67
2021/12/18 11:55:50;;;;;;;36.83;13.20;;;3.30;76.20;;;;;;5065614;28;46493;-67
2021/12/18 11:58:15;;;;;;;34.28;12.85;;;3.20;76.60;;;;;;5065577;28;45741;-66
2021/12/18 12:00:49;;;;;;;40.40;13.43;;;3.20;76.90;;;;;;5065115;28;46584;-67
2021/12/18 12:03:40;;;;;;;29.88;10.27;;;3.00;78.10;;;;;;5065067;28;47080;-67
2021/12/18 12:06:30;;;;;;;74.15;31.13;;;2.90;77.50;;;;;;5064994;28;46333;-66
2021/12/18 12:12:10;;;;;;;38.80;12.30;;;3.10;76.50;;;;;;5084030;28;46530;-67
2021/12/18 12:14:45;;;;;;;39.28;11.15;;;3.00;76.60;;;;;;5064258;28;47936;-65
2021/12/18 12:17:27;;;;;;;37.67;11.68;;;3.00;76.60;;;;;;5064842;28;46459;-66
2021/12/18 12:20:03;;;;;;;33.90;9.98;;;3.00;76.60;;;;;;5065315;28;46398;-66
2021/12/18 12:22:32;;;;;;;28.10;11.43;;;3.00;76.90;;;;;;5065155;28;46335;-67
2021/12/18 12:24:59;;;;;;;32.13;10.80;;;3.10;76.90;;;;;;5064679;28;48051;-66
2021/12/18 12:27:28;;;;;;;33.30;12.95;;;3.30;76.10;;;;;;5064938;28;46456;-67
2021/12/18 12:29:55;;;;;;;39.08;16.13;;;3.20;76.20;;;;;;5064601;28;46496;-65
2021/12/18 12:32:21;;;;;;;41.20;12.57;;;3.00;76.50;;;;;;5065099;28;46293;-65
2021/12/18 12:35:03;;;;;;;36.40;15.45;;;3.10;76.50;;;;;;5065161;28;48113;-67
2021/12/18 12:37:40;;;;;;;32.80;12.18;;;3.10;76.30;;;;;;5063091;28;46523;-67
2021/12/18 12:40:20;;;;;;;35.55;11.52;;;3.10;76.30;;;;;;5063278;28;46456;-68
2021/12/18 12:43:21;;;;;;;25.92;9.68;;;3.20;76.00;;;;;;5082256;27;46468;-67
2021/12/18 12:45:50;;;;;;;30.38;11.10;;;3.30;75.70;;;;;;5064542;28;49310;-68
2021/12/18 12:48:17;;;;;;;36.03;12.25;;;3.30;75.70;;;;;;5064340;28;46569;-67
2021/12/18 12:50:53;;;;;;;42.08;13.52;;;3.40;75.70;;;;;;5063832;28;46475;-67
2021/12/18 12:53:19;;;;;;;50.75;13.18;;;3.30;75.80;;;;;;5064916;28;46477;-67
2021/12/18 12:55:47;;;;;;;65.20;11.30;;;3.10;76.60;;;;;;5063800;28;48744;-67
2021/12/18 12:58:19;;;;;;;40.22;19.55;;;2.90;77.10;;;;;;5082246;28;46440;-67
2021/12/18 13:00:48;;;;;;;51.88;10.82;;;2.80;77.60;;;;;;5064406;28;46390;-67
2021/12/18 13:03:18;;;;;;;26.90;10.80;;;2.80;77.50;;;;;;5064336;28;46441;-66
2021/12/18 13:05:58;;;;;;;35.53;10.63;;;2.60;77.80;;;;;;5064019;28;48132;-67
2021/12/18 13:08:26;;;;;;;43.72;12.25;;;2.70;77.70;;;;;;5064256;28;46431;-67
2021/12/18 13:10:57;;;;;;;36.72;11.60;;;2.60;77.50;;;;;;5064711;28;46476;-66
2021/12/18 13:13:26;;;;;;;43.15;11.95;;;2.70;77.30;;;;;;5064377;28;46225;-65
2021/12/18 13:16:03;;;;;;;26.13;11.30;;;2.80;76.90;;;;;;5063590;28;46509;-67
2021/12/18 13:18:44;;;;;;;50.47;13.18;;;2.90;76.60;;;;;;5064022;28;46538;-67
2021/12/18 13:21:20;;;;;;;37.85;13.35;;;2.90;76.60;;;;;;5063928;28;46471;-66
2021/12/18 13:23:49;;;;;;;37.40;11.32;;;3.00;76.40;;;;;;5063924;28;46393;-65
2021/12/18 13:26:22;;;;;;;31.33;10.52;;;3.10;77.50;;;;;;5062451;28;46477;-65
2021/12/18 13:28:58;;;;;;;45.22;11.63;;;3.10;76.30;;;;;;5064284;28;46492;-67
2021/12/18 13:31:27;;;;;;;33.05;10.63;;;3.20;75.80;;;;;;5064320;28;46374;-67
2021/12/18 13:34:03;;;;;;;70.47;11.60;;;3.20;75.90;;;;;;5066691;28;46413;-66
2021/12/18 13:36:51;;;;;;;44.90;13.43;;;3.00;76.40;;;;;;5063812;28;46532;-68
2021/12/18 13:39:30;;;;;;;46.72;12.25;;;2.90;76.70;;;;;;5062983;28;46424;-67
2021/12/18 13:42:05;;;;;;;37.45;14.23;;;2.70;77.50;;;;;;5063815;28;46361;-67
2021/12/18 13:44:57;;;;;;;40.05;13.13;;;2.70;77.40;;;;;;5063634;28;46425;-67
2021/12/18 13:47:47;;;;;;;28.98;10.73;;;2.80;77.20;;;;;;5062829;28;46367;-67